sensor_id;sensor_type;location;lat;lon;timestamp;P1;durP1;ratioP1;P2;durP2;ratioP2
74894;SDS011;63447;49.446;8.666;2023-03-13T00:03:43;10.57;;;2.47;;
74894;SDS011;63447;49.446;8.666;2023-03-13T00:06:11;7.53;;;2.05;;
74894;SDS011;63447;49.446;8.666;2023-03-13T00:08:37;13.23;;;2.63;;
74894;SDS011;63447;49.446;8.666;2023-03-13T00:11:09;13.02;;;2.63;;
74894;SDS011;63447;49.446;8.666;2023-03-13T00:13:36;12.10;;;2.15;;
74894;SDS011;63447;49.446;8.666;2023-03-13T00:16:02;7.65;;;1.75;;
74894;SDS011;63447;49.446;8.666;2023-03-13T00:18:30;10.93;;;2.05;;
74894;SDS011;63447;49.446;8.666;2023-03-13T00:21:02;8.03;;;2.00;;
74894;SDS011;63447;49.446;8.666;2023-03-13T00:23:29;9.82;;;2.17;;
74894;SDS011;63447;49.446;8.666;2023-03-13T00:26:04;9.63;;;2.20;;
74894;SDS011;63447;49.446;8.666;2023-03-13T00:28:31;9.85;;;2.13;;
74894;SDS011;63447;49.446;8.666;2023-03-13T00:31:05;9.00;;;1.90;;
74894;SDS011;63447;49.446;8.666;2023-03-13T00:33:35;9.68;;;2.13;;
74894;SDS011;63447;49.446;8.666;2023-03-13T00:36:04;13.25;;;2.35;;
74894;SDS011;63447;49.446;8.666;2023-03-13T00:38:31;9.60;;;2.10;;
74894;SDS011;63447;49.446;8.666;2023-03-13T00:40:58;13.98;;;2.22;;
74894;SDS011;63447;49.446;8.666;2023-03-13T00:43:33;11.90;;;2.05;;
74894;SDS011;63447;49.446;8.666;2023-03-13T00:45:59;12.35;;;2.85;;
74894;SDS011;63447;49.446;8.666;2023-03-13T00:48:25;11.35;;;2.30;;
74894;SDS011;63447;49.446;8.666;2023-03-13T00:50:51;7.93;;;1.88;;
74894;SDS011;63447;49.446;8.666;2023-03-13T00:53:16;10.17;;;2.37;;
74894;SDS011;63447;49.446;8.666;2023-03-13T00:55:52;9.63;;;2.05;;
74894;SDS011;63447;49.446;8.666;2023-03-13T00:58:17;8.93;;;1.88;;
74894;SDS011;63447;49.446;8.666;2023-03-13T01:00:46;11.43;;;1.92;;
74894;SDS011;63447;49.446;8.666;2023-03-13T01:03:11;9.95;;;1.73;;
74894;SDS011;63447;49.446;8.666;2023-03-13T01:05:36;11.13;;;2.07;;
74894;SDS011;63447;49.446;8.666;2023-03-13T01:08:04;15.33;;;2.37;;
74894;SDS011;63447;49.446;8.666;2023-03-13T01:10:29;9.35;;;2.03;;
74894;SDS011;63447;49.446;8.666;2023-03-13T01:12:55;9.73;;;2.05;;
74894;SDS011;63447;49.446;8.666;2023-03-13T01:15:23;8.38;;;1.83;;
74894;SDS011;63447;49.446;8.666;2023-03-13T01:17:51;11.13;;;2.47;;
74894;SDS011;63447;49.446;8.666;2023-03-13T01:20:16;9.15;;;2.03;;
74894;SDS011;63447;49.446;8.666;2023-03-13T01:22:44;9.85;;;2.30;;
74894;SDS011;63447;49.446;8.666;2023-03-13T01:25:12;10.02;;;2.38;;
74894;SDS011;63447;49.446;8.666;2023-03-13T01:27:37;10.83;;;2.20;;
74894;SDS011;63447;49.446;8.666;2023-03-13T01:30:03;10.13;;;1.87;;
74894;SDS011;63447;49.446;8.666;2023-03-13T01:32:31;9.48;;;2.35;;
74894;SDS011;63447;49.446;8.666;2023-03-13T01:34:57;9.85;;;1.90;;
74894;SDS011;63447;49.446;8.666;2023-03-13T01:37:22;8.77;;;2.10;;
74894;SDS011;63447;49.446;8.666;2023-03-13T01:39:47;10.10;;;1.80;;
74894;SDS011;63447;49.446;8.666;2023-03-13T01:42:13;10.13;;;1.77;;
74894;SDS011;63447;49.446;8.666;2023-03-13T01:44:52;7.80;;;2.13;;
74894;SDS011;63447;49.446;8.666;2023-03-13T01:47:19;12.25;;;2.05;;
74894;SDS011;63447;49.446;8.666;2023-03-13T01:49:45;8.90;;;1.80;;
74894;SDS011;63447;49.446;8.666;2023-03-13T01:54:45;7.47;;;1.60;;
74894;SDS011;63447;49.446;8.666;2023-03-13T01:59:53;10.35;;;1.83;;
74894;SDS011;63447;49.446;8.666;2023-03-13T02:02:25;7.97;;;1.90;;
74894;SDS011;63447;49.446;8.666;2023-03-13T02:04:52;7.82;;;1.58;;
74894;SDS011;63447;49.446;8.666;2023-03-13T02:07:26;7.63;;;1.73;;
74894;SDS011;63447;49.446;8.666;2023-03-13T02:09:59;10.65;;;2.15;;
74894;SDS011;63447;49.446;8.666;2023-03-13T02:12:26;9.23;;;2.13;;
74894;SDS011;63447;49.446;8.666;2023-03-13T02:15:07;6.43;;;1.67;;
74894;SDS011;63447;49.446;8.666;2023-03-13T02:17:37;8.20;;;1.95;;
74894;SDS011;63447;49.446;8.666;2023-03-13T02:20:04;8.07;;;1.90;;
74894;SDS011;63447;49.446;8.666;2023-03-13T02:27:56;7.82;;;1.58;;
74894;SDS011;63447;49.446;8.666;2023-03-13T02:30:27;11.30;;;1.83;;
74894;SDS011;63447;49.446;8.666;2023-03-13T02:32:53;7.40;;;2.03;;
74894;SDS011;63447;49.446;8.666;2023-03-13T02:35:22;12.40;;;2.22;;
74894;SDS011;63447;49.446;8.666;2023-03-13T02:37:54;9.88;;;1.52;;
74894;SDS011;63447;49.446;8.666;2023-03-13T02:40:25;8.63;;;2.10;;
74894;SDS011;63447;49.446;8.666;2023-03-13T02:42:53;7.28;;;1.58;;
74894;SDS011;63447;49.446;8.666;2023-03-13T02:45:23;8.02;;;2.00;;
74894;SDS011;63447;49.446;8.666;2023-03-13T02:47:48;7.25;;;1.45;;
74894;SDS011;63447;49.446;8.666;2023-03-13T02:50:14;6.82;;;1.63;;
74894;SDS011;63447;49.446;8.666;2023-03-13T02:52:44;7.32;;;2.05;;
74894;SDS011;63447;49.446;8.666;2023-03-13T02:55:27;8.68;;;1.98;;
74894;SDS011;63447;49.446;8.666;2023-03-13T02:57:59;5.90;;;1.45;;
74894;SDS011;63447;49.446;8.666;2023-03-13T03:00:24;5.97;;;1.33;;
74894;SDS011;63447;49.446;8.666;2023-03-13T03:02:51;5.90;;;1.50;;
74894;SDS011;63447;49.446;8.666;2023-03-13T03:05:18;9.45;;;1.52;;
74894;SDS011;63447;49.446;8.666;2023-03-13T03:07:44;6.55;;;1.48;;
74894;SDS011;63447;49.446;8.666;2023-03-13T03:10:09;5.45;;;1.20;;
74894;SDS011;63447;49.446;8.666;2023-03-13T03:12:35;6.82;;;1.50;;
74894;SDS011;63447;49.446;8.666;2023-03-13T03:15:05;5.93;;;1.65;;
74894;SDS011;63447;49.446;8.666;2023-03-13T03:17:31;6.88;;;1.40;;
74894;SDS011;63447;49.446;8.666;2023-03-13T03:19:56;8.57;;;1.40;;
74894;SDS011;63447;49.446;8.666;2023-03-13T03:22:22;6.70;;;1.20;;
74894;SDS011;63447;49.446;8.666;2023-03-13T03:24:47;7.20;;;1.38;;
74894;SDS011;63447;49.446;8.666;2023-03-13T03:27:15;6.82;;;1.15;;
74894;SDS011;63447;49.446;8.666;2023-03-13T03:29:42;7.43;;;1.40;;
74894;SDS011;63447;49.446;8.666;2023-03-13T03:32:08;6.30;;;1.40;;
74894;SDS011;63447;49.446;8.666;2023-03-13T03:34:33;4.87;;;1.00;;
74894;SDS011;63447;49.446;8.666;2023-03-13T03:37:01;6.00;;;1.35;;
74894;SDS011;63447;49.446;8.666;2023-03-13T03:39:29;7.82;;;1.30;;
74894;SDS011;63447;49.446;8.666;2023-03-13T03:41:56;6.13;;;1.48;;
74894;SDS011;63447;49.446;8.666;2023-03-13T03:44:22;6.50;;;1.23;;
74894;SDS011;63447;49.446;8.666;2023-03-13T03:46:50;5.38;;;1.20;;
74894;SDS011;63447;49.446;8.666;2023-03-13T03:49:15;7.60;;;1.67;;
74894;SDS011;63447;49.446;8.666;2023-03-13T03:51:40;5.57;;;1.33;;
74894;SDS011;63447;49.446;8.666;2023-03-13T03:54:05;5.83;;;1.10;;
74894;SDS011;63447;49.446;8.666;2023-03-13T03:56:31;7.13;;;1.15;;
74894;SDS011;63447;49.446;8.666;2023-03-13T03:58:56;4.03;;;1.03;;
74894;SDS011;63447;49.446;8.666;2023-03-13T04:01:22;5.63;;;1.20;;
74894;SDS011;63447;49.446;8.666;2023-03-13T04:03:47;4.50;;;1.10;;
74894;SDS011;63447;49.446;8.666;2023-03-13T04:06:12;5.97;;;1.20;;
74894;SDS011;63447;49.446;8.666;2023-03-13T04:08:41;7.22;;;1.05;;
74894;SDS011;63447;49.446;8.666;2023-03-13T04:11:06;4.80;;;1.00;;
74894;SDS011;63447;49.446;8.666;2023-03-13T04:13:31;3.93;;;0.70;;
74894;SDS011;63447;49.446;8.666;2023-03-13T04:15:57;4.82;;;0.98;;
74894;SDS011;63447;49.446;8.666;2023-03-13T04:18:22;6.93;;;1.00;;
74894;SDS011;63447;49.446;8.666;2023-03-13T04:20:50;5.50;;;1.05;;
74894;SDS011;63447;49.446;8.666;2023-03-13T04:23:23;3.67;;;1.13;;
74894;SDS011;63447;49.446;8.666;2023-03-13T04:25:48;6.43;;;1.43;;
74894;SDS011;63447;49.446;8.666;2023-03-13T04:28:15;5.35;;;1.10;;
74894;SDS011;63447;49.446;8.666;2023-03-13T04:30:41;5.33;;;1.20;;
74894;SDS011;63447;49.446;8.666;2023-03-13T04:33:06;6.23;;;1.20;;
74894;SDS011;63447;49.446;8.666;2023-03-13T04:35:31;5.57;;;1.20;;
74894;SDS011;63447;49.446;8.666;2023-03-13T04:37:56;4.83;;;1.10;;
74894;SDS011;63447;49.446;8.666;2023-03-13T04:40:22;5.35;;;1.15;;
74894;SDS011;63447;49.446;8.666;2023-03-13T04:42:47;5.40;;;1.13;;
74894;SDS011;63447;49.446;8.666;2023-03-13T04:45:15;6.00;;;1.15;;
74894;SDS011;63447;49.446;8.666;2023-03-13T04:47:43;2.78;;;1.10;;
74894;SDS011;63447;49.446;8.666;2023-03-13T04:50:12;3.63;;;1.20;;
74894;SDS011;63447;49.446;8.666;2023-03-13T04:52:38;5.13;;;1.20;;
74894;SDS011;63447;49.446;8.666;2023-03-13T04:55:03;4.57;;;1.20;;
74894;SDS011;63447;49.446;8.666;2023-03-13T04:57:29;3.88;;;1.00;;
74894;SDS011;63447;49.446;8.666;2023-03-13T04:59:54;5.45;;;1.20;;
74894;SDS011;63447;49.446;8.666;2023-03-13T05:02:20;3.75;;;1.00;;
74894;SDS011;63447;49.446;8.666;2023-03-13T05:04:50;6.20;;;1.33;;
74894;SDS011;63447;49.446;8.666;2023-03-13T05:07:17;5.13;;;1.20;;
74894;SDS011;63447;49.446;8.666;2023-03-13T05:09:45;7.40;;;1.40;;
74894;SDS011;63447;49.446;8.666;2023-03-13T05:12:12;4.15;;;1.00;;
74894;SDS011;63447;49.446;8.666;2023-03-13T05:14:38;5.77;;;1.00;;
74894;SDS011;63447;49.446;8.666;2023-03-13T05:17:03;4.00;;;1.00;;
74894;SDS011;63447;49.446;8.666;2023-03-13T05:19:28;3.35;;;1.00;;
74894;SDS011;63447;49.446;8.666;2023-03-13T05:21:56;4.25;;;1.00;;
74894;SDS011;63447;49.446;8.666;2023-03-13T05:24:21;5.63;;;1.40;;
74894;SDS011;63447;49.446;8.666;2023-03-13T05:26:47;5.13;;;1.00;;
74894;SDS011;63447;49.446;8.666;2023-03-13T05:29:12;4.93;;;1.10;;
74894;SDS011;63447;49.446;8.666;2023-03-13T05:31:40;4.68;;;1.10;;
74894;SDS011;63447;49.446;8.666;2023-03-13T05:34:05;4.27;;;1.27;;
74894;SDS011;63447;49.446;8.666;2023-03-13T05:36:30;4.40;;;0.97;;
74894;SDS011;63447;49.446;8.666;2023-03-13T05:38:55;3.55;;;1.20;;
74894;SDS011;63447;49.446;8.666;2023-03-13T05:41:21;4.47;;;1.10;;
74894;SDS011;63447;49.446;8.666;2023-03-13T05:43:46;4.17;;;1.20;;
74894;SDS011;63447;49.446;8.666;2023-03-13T05:46:11;4.50;;;1.17;;
74894;SDS011;63447;49.446;8.666;2023-03-13T05:48:39;4.60;;;1.17;;
74894;SDS011;63447;49.446;8.666;2023-03-13T05:51:05;6.50;;;1.17;;
74894;SDS011;63447;49.446;8.666;2023-03-13T05:53:30;4.30;;;1.10;;
74894;SDS011;63447;49.446;8.666;2023-03-13T05:55:55;5.50;;;1.50;;
74894;SDS011;63447;49.446;8.666;2023-03-13T05:58:23;4.75;;;1.10;;
74894;SDS011;63447;49.446;8.666;2023-03-13T06:00:48;4.35;;;1.25;;
74894;SDS011;63447;49.446;8.666;2023-03-13T06:03:13;3.07;;;1.00;;
74894;SDS011;63447;49.446;8.666;2023-03-13T06:05:39;5.40;;;1.20;;
74894;SDS011;63447;49.446;8.666;2023-03-13T06:08:04;3.77;;;1.20;;
74894;SDS011;63447;49.446;8.666;2023-03-13T06:10:29;2.90;;;0.88;;
74894;SDS011;63447;49.446;8.666;2023-03-13T06:12:55;5.32;;;1.45;;
74894;SDS011;63447;49.446;8.666;2023-03-13T06:15:21;2.95;;;1.00;;
74894;SDS011;63447;49.446;8.666;2023-03-13T06:17:47;4.53;;;1.00;;
74894;SDS011;63447;49.446;8.666;2023-03-13T06:20:14;6.25;;;1.10;;
74894;SDS011;63447;49.446;8.666;2023-03-13T06:22:40;4.28;;;0.90;;
74894;SDS011;63447;49.446;8.666;2023-03-13T06:25:06;3.47;;;0.90;;
74894;SDS011;63447;49.446;8.666;2023-03-13T06:27:31;4.03;;;1.20;;
74894;SDS011;63447;49.446;8.666;2023-03-13T06:29:57;3.65;;;1.10;;
74894;SDS011;63447;49.446;8.666;2023-03-13T06:32:22;4.30;;;0.93;;
74894;SDS011;63447;49.446;8.666;2023-03-13T06:34:48;4.03;;;0.95;;
74894;SDS011;63447;49.446;8.666;2023-03-13T06:37:13;2.70;;;0.93;;
74894;SDS011;63447;49.446;8.666;2023-03-13T06:39:38;4.20;;;1.10;;
74894;SDS011;63447;49.446;8.666;2023-03-13T06:42:04;3.30;;;1.10;;
74894;SDS011;63447;49.446;8.666;2023-03-13T06:44:35;3.67;;;0.80;;
74894;SDS011;63447;49.446;8.666;2023-03-13T06:47:00;3.47;;;0.90;;
74894;SDS011;63447;49.446;8.666;2023-03-13T06:49:26;3.17;;;0.80;;
74894;SDS011;63447;49.446;8.666;2023-03-13T06:51:51;3.70;;;0.93;;
74894;SDS011;63447;49.446;8.666;2023-03-13T06:54:19;3.72;;;1.15;;
74894;SDS011;63447;49.446;8.666;2023-03-13T06:56:44;3.60;;;0.80;;
74894;SDS011;63447;49.446;8.666;2023-03-13T06:59:09;4.03;;;1.10;;
74894;SDS011;63447;49.446;8.666;2023-03-13T07:01:37;3.05;;;1.00;;
74894;SDS011;63447;49.446;8.666;2023-03-13T07:04:02;2.90;;;1.00;;
74894;SDS011;63447;49.446;8.666;2023-03-13T07:06:27;3.57;;;0.97;;
74894;SDS011;63447;49.446;8.666;2023-03-13T07:08:53;3.77;;;1.00;;
74894;SDS011;63447;49.446;8.666;2023-03-13T07:11:18;3.10;;;1.00;;
74894;SDS011;63447;49.446;8.666;2023-03-13T07:13:43;4.20;;;1.08;;
74894;SDS011;63447;49.446;8.666;2023-03-13T07:16:09;3.80;;;0.83;;
74894;SDS011;63447;49.446;8.666;2023-03-13T07:18:39;5.28;;;1.27;;
74894;SDS011;63447;49.446;8.666;2023-03-13T07:21:08;4.82;;;1.60;;
74894;SDS011;63447;49.446;8.666;2023-03-13T07:23:37;3.88;;;1.35;;
74894;SDS011;63447;49.446;8.666;2023-03-13T07:26:03;3.30;;;0.90;;
74894;SDS011;63447;49.446;8.666;2023-03-13T07:28:30;4.05;;;1.10;;
74894;SDS011;63447;49.446;8.666;2023-03-13T07:31:05;3.35;;;1.00;;
74894;SDS011;63447;49.446;8.666;2023-03-13T07:33:37;3.97;;;0.95;;
74894;SDS011;63447;49.446;8.666;2023-03-13T07:36:03;4.13;;;1.00;;
74894;SDS011;63447;49.446;8.666;2023-03-13T07:38:28;3.33;;;1.00;;
74894;SDS011;63447;49.446;8.666;2023-03-13T07:40:54;3.33;;;0.80;;
74894;SDS011;63447;49.446;8.666;2023-03-13T07:43:21;5.07;;;1.33;;
74894;SDS011;63447;49.446;8.666;2023-03-13T07:48:20;3.97;;;1.20;;
74894;SDS011;63447;49.446;8.666;2023-03-13T07:50:47;6.00;;;2.33;;
74894;SDS011;63447;49.446;8.666;2023-03-13T07:53:15;3.28;;;1.08;;
74894;SDS011;63447;49.446;8.666;2023-03-13T07:55:55;3.63;;;1.17;;
74894;SDS011;63447;49.446;8.666;2023-03-13T07:58:21;2.97;;;0.80;;
74894;SDS011;63447;49.446;8.666;2023-03-13T08:00:46;4.00;;;0.93;;
74894;SDS011;63447;49.446;8.666;2023-03-13T08:03:12;3.17;;;0.80;;
74894;SDS011;63447;49.446;8.666;2023-03-13T08:05:37;2.88;;;0.90;;
74894;SDS011;63447;49.446;8.666;2023-03-13T08:08:03;4.33;;;1.10;;
74894;SDS011;63447;49.446;8.666;2023-03-13T08:10:29;3.45;;;0.90;;
74894;SDS011;63447;49.446;8.666;2023-03-13T08:12:55;2.70;;;0.80;;
74894;SDS011;63447;49.446;8.666;2023-03-13T08:15:23;4.18;;;1.13;;
74894;SDS011;63447;49.446;8.666;2023-03-13T08:17:53;4.00;;;1.20;;
74894;SDS011;63447;49.446;8.666;2023-03-13T08:22:47;4.63;;;1.03;;
74894;SDS011;63447;49.446;8.666;2023-03-13T08:25:15;3.42;;;0.80;;
74894;SDS011;63447;49.446;8.666;2023-03-13T08:27:41;4.43;;;0.93;;
74894;SDS011;63447;49.446;8.666;2023-03-13T08:30:07;3.25;;;0.80;;
74894;SDS011;63447;49.446;8.666;2023-03-13T08:32:33;4.00;;;1.23;;
74894;SDS011;63447;49.446;8.666;2023-03-13T08:34:59;4.03;;;1.10;;
74894;SDS011;63447;49.446;8.666;2023-03-13T08:37:27;4.35;;;1.10;;
74894;SDS011;63447;49.446;8.666;2023-03-13T08:39:52;3.97;;;0.90;;
74894;SDS011;63447;49.446;8.666;2023-03-13T08:42:20;3.33;;;1.00;;
74894;SDS011;63447;49.446;8.666;2023-03-13T08:44:48;2.97;;;0.90;;
74894;SDS011;63447;49.446;8.666;2023-03-13T08:47:15;3.15;;;0.73;;
74894;SDS011;63447;49.446;8.666;2023-03-13T08:49:42;3.00;;;0.68;;
74894;SDS011;63447;49.446;8.666;2023-03-13T08:52:08;2.70;;;0.77;;
74894;SDS011;63447;49.446;8.666;2023-03-13T08:54:33;3.45;;;1.10;;
74894;SDS011;63447;49.446;8.666;2023-03-13T08:57:01;4.65;;;1.15;;
74894;SDS011;63447;49.446;8.666;2023-03-13T08:59:26;3.10;;;0.90;;
74894;SDS011;63447;49.446;8.666;2023-03-13T09:01:52;5.28;;;1.20;;
74894;SDS011;63447;49.446;8.666;2023-03-13T09:04:17;2.90;;;0.90;;
74894;SDS011;63447;49.446;8.666;2023-03-13T09:06:43;2.45;;;0.80;;
74894;SDS011;63447;49.446;8.666;2023-03-13T09:09:09;3.67;;;1.00;;
74894;SDS011;63447;49.446;8.666;2023-03-13T09:11:38;4.45;;;1.10;;
74894;SDS011;63447;49.446;8.666;2023-03-13T09:14:04;3.25;;;1.00;;
74894;SDS011;63447;49.446;8.666;2023-03-13T09:16:30;3.30;;;0.90;;
74894;SDS011;63447;49.446;8.666;2023-03-13T09:18:57;4.53;;;1.50;;
74894;SDS011;63447;49.446;8.666;2023-03-13T09:21:24;4.00;;;1.00;;
74894;SDS011;63447;49.446;8.666;2023-03-13T09:23:51;4.22;;;1.10;;
74894;SDS011;63447;49.446;8.666;2023-03-13T09:26:17;4.28;;;1.35;;
74894;SDS011;63447;49.446;8.666;2023-03-13T09:28:43;5.60;;;1.88;;
74894;SDS011;63447;49.446;8.666;2023-03-13T09:33:40;3.90;;;1.10;;
74894;SDS011;63447;49.446;8.666;2023-03-13T09:36:10;4.65;;;1.15;;
74894;SDS011;63447;49.446;8.666;2023-03-13T09:38:36;4.40;;;1.25;;
74894;SDS011;63447;49.446;8.666;2023-03-13T09:43:53;4.78;;;1.40;;
74894;SDS011;63447;49.446;8.666;2023-03-13T09:49:22;4.93;;;1.50;;
74894;SDS011;63447;49.446;8.666;2023-03-13T09:51:49;5.00;;;1.65;;
74894;SDS011;63447;49.446;8.666;2023-03-13T09:54:27;4.10;;;1.50;;
74894;SDS011;63447;49.446;8.666;2023-03-13T10:05:00;4.28;;;0.95;;
74894;SDS011;63447;49.446;8.666;2023-03-13T10:07:26;3.38;;;1.08;;
74894;SDS011;63447;49.446;8.666;2023-03-13T10:09:54;3.78;;;1.00;;
74894;SDS011;63447;49.446;8.666;2023-03-13T10:12:20;3.90;;;1.10;;
74894;SDS011;63447;49.446;8.666;2023-03-13T10:14:53;3.70;;;1.20;;
74894;SDS011;63447;49.446;8.666;2023-03-13T10:19:58;4.25;;;0.95;;
74894;SDS011;63447;49.446;8.666;2023-03-13T10:22:34;3.10;;;1.00;;
74894;SDS011;63447;49.446;8.666;2023-03-13T10:25:18;3.53;;;1.17;;
74894;SDS011;63447;49.446;8.666;2023-03-13T10:27:49;3.72;;;1.10;;
74894;SDS011;63447;49.446;8.666;2023-03-13T10:30:30;4.20;;;1.30;;
74894;SDS011;63447;49.446;8.666;2023-03-13T10:33:00;3.33;;;0.95;;
74894;SDS011;63447;49.446;8.666;2023-03-13T10:35:58;4.40;;;0.90;;
74894;SDS011;63447;49.446;8.666;2023-03-13T10:40:56;3.83;;;1.00;;
74894;SDS011;63447;49.446;8.666;2023-03-13T10:43:24;3.50;;;0.85;;
74894;SDS011;63447;49.446;8.666;2023-03-13T10:45:54;3.17;;;1.00;;
74894;SDS011;63447;49.446;8.666;2023-03-13T10:48:28;3.70;;;1.10;;
74894;SDS011;63447;49.446;8.666;2023-03-13T10:51:00;3.70;;;1.10;;
74894;SDS011;63447;49.446;8.666;2023-03-13T10:55:57;5.68;;;2.22;;
74894;SDS011;63447;49.446;8.666;2023-03-13T10:58:36;4.07;;;1.10;;
74894;SDS011;63447;49.446;8.666;2023-03-13T11:01:20;9.82;;;5.70;;
74894;SDS011;63447;49.446;8.666;2023-03-13T11:03:49;3.78;;;1.23;;
74894;SDS011;63447;49.446;8.666;2023-03-13T11:09:03;3.85;;;1.00;;
74894;SDS011;63447;49.446;8.666;2023-03-13T11:11:29;4.45;;;1.00;;
74894;SDS011;63447;49.446;8.666;2023-03-13T11:16:45;3.10;;;1.02;;
74894;SDS011;63447;49.446;8.666;2023-03-13T11:19:24;4.72;;;1.17;;
74894;SDS011;63447;49.446;8.666;2023-03-13T11:24:39;3.20;;;1.00;;
74894;SDS011;63447;49.446;8.666;2023-03-13T11:27:16;3.22;;;0.93;;
74894;SDS011;63447;49.446;8.666;2023-03-13T11:35:06;7.30;;;5.10;;
74894;SDS011;63447;49.446;8.666;2023-03-13T11:37:43;4.72;;;1.38;;
74894;SDS011;63447;49.446;8.666;2023-03-13T11:51:33;4.18;;;1.20;;
74894;SDS011;63447;49.446;8.666;2023-03-13T11:56:51;3.72;;;1.08;;
74894;SDS011;63447;49.446;8.666;2023-03-13T12:02:35;4.53;;;1.55;;
74894;SDS011;63447;49.446;8.666;2023-03-13T12:05:09;4.78;;;1.33;;
74894;SDS011;63447;49.446;8.666;2023-03-13T12:12:46;3.25;;;1.33;;
74894;SDS011;63447;49.446;8.666;2023-03-13T12:18:05;3.88;;;1.20;;
74894;SDS011;63447;49.446;8.666;2023-03-13T12:20:40;3.58;;;1.30;;
74894;SDS011;63447;49.446;8.666;2023-03-13T12:25:41;3.65;;;1.50;;
74894;SDS011;63447;49.446;8.666;2023-03-13T12:29:00;3.60;;;1.30;;
74894;SDS011;63447;49.446;8.666;2023-03-13T12:36:50;4.03;;;1.20;;
74894;SDS011;63447;49.446;8.666;2023-03-13T12:44:42;4.25;;;1.27;;
74894;SDS011;63447;49.446;8.666;2023-03-13T12:47:09;4.18;;;1.10;;
74894;SDS011;63447;49.446;8.666;2023-03-13T13:00:53;4.57;;;1.38;;
74894;SDS011;63447;49.446;8.666;2023-03-13T13:06:09;4.50;;;1.25;;
74894;SDS011;63447;49.446;8.666;2023-03-13T13:14:05;5.07;;;1.95;;
74894;SDS011;63447;49.446;8.666;2023-03-13T13:16:57;4.75;;;1.40;;
74894;SDS011;63447;49.446;8.666;2023-03-13T13:30:28;4.55;;;1.30;;
74894;SDS011;63447;49.446;8.666;2023-03-13T13:32:57;3.53;;;1.20;;
74894;SDS011;63447;49.446;8.666;2023-03-13T13:35:40;3.60;;;1.30;;
74894;SDS011;63447;49.446;8.666;2023-03-13T13:44:18;4.50;;;1.50;;
74894;SDS011;63447;49.446;8.666;2023-03-13T13:46:45;3.67;;;1.30;;
74894;SDS011;63447;49.446;8.666;2023-03-13T13:54:31;5.45;;;1.40;;
74894;SDS011;63447;49.446;8.666;2023-03-13T13:57:06;4.72;;;1.40;;
74894;SDS011;63447;49.446;8.666;2023-03-13T14:07:00;4.25;;;1.25;;
74894;SDS011;63447;49.446;8.666;2023-03-13T14:11:56;4.40;;;1.40;;
74894;SDS011;63447;49.446;8.666;2023-03-13T14:14:29;5.10;;;1.30;;
74894;SDS011;63447;49.446;8.666;2023-03-13T14:16:55;4.07;;;1.50;;
74894;SDS011;63447;49.446;8.666;2023-03-13T14:19:26;4.63;;;1.50;;
74894;SDS011;63447;49.446;8.666;2023-03-13T14:22:04;3.85;;;1.20;;
74894;SDS011;63447;49.446;8.666;2023-03-13T14:24:31;3.17;;;1.20;;
74894;SDS011;63447;49.446;8.666;2023-03-13T14:26:59;5.03;;;1.83;;
74894;SDS011;63447;49.446;8.666;2023-03-13T14:29:27;3.80;;;1.40;;
74894;SDS011;63447;49.446;8.666;2023-03-13T14:31:54;3.55;;;1.27;;
74894;SDS011;63447;49.446;8.666;2023-03-13T14:34:24;4.60;;;1.30;;
74894;SDS011;63447;49.446;8.666;2023-03-13T14:37:00;4.00;;;1.33;;
74894;SDS011;63447;49.446;8.666;2023-03-13T14:39:45;4.10;;;1.10;;
74894;SDS011;63447;49.446;8.666;2023-03-13T14:42:14;3.67;;;1.10;;
74894;SDS011;63447;49.446;8.666;2023-03-13T14:44:41;4.25;;;1.00;;
74894;SDS011;63447;49.446;8.666;2023-03-13T14:47:23;4.95;;;1.30;;
74894;SDS011;63447;49.446;8.666;2023-03-13T14:49:57;3.20;;;1.10;;
74894;SDS011;63447;49.446;8.666;2023-03-13T14:52:25;4.22;;;1.58;;
74894;SDS011;63447;49.446;8.666;2023-03-13T14:54:56;4.32;;;1.30;;
74894;SDS011;63447;49.446;8.666;2023-03-13T14:57:26;4.22;;;1.30;;
74894;SDS011;63447;49.446;8.666;2023-03-13T14:59:53;4.53;;;1.30;;
74894;SDS011;63447;49.446;8.666;2023-03-13T15:07:50;4.45;;;1.10;;
74894;SDS011;63447;49.446;8.666;2023-03-13T15:12:46;3.30;;;1.02;;
74894;SDS011;63447;49.446;8.666;2023-03-13T15:15:15;5.03;;;1.70;;
74894;SDS011;63447;49.446;8.666;2023-03-13T15:17:46;3.10;;;1.10;;
74894;SDS011;63447;49.446;8.666;2023-03-13T15:20:14;5.60;;;2.22;;
74894;SDS011;63447;49.446;8.666;2023-03-13T15:22:43;3.03;;;1.08;;
74894;SDS011;63447;49.446;8.666;2023-03-13T15:25:14;4.90;;;1.10;;
74894;SDS011;63447;49.446;8.666;2023-03-13T15:30:18;5.10;;;1.05;;
74894;SDS011;63447;49.446;8.666;2023-03-13T15:32:47;3.97;;;0.90;;
74894;SDS011;63447;49.446;8.666;2023-03-13T15:37:48;3.72;;;1.10;;
74894;SDS011;63447;49.446;8.666;2023-03-13T15:40:20;4.22;;;0.90;;
74894;SDS011;63447;49.446;8.666;2023-03-13T15:42:52;3.90;;;1.17;;
74894;SDS011;63447;49.446;8.666;2023-03-13T15:45:22;4.45;;;1.10;;
74894;SDS011;63447;49.446;8.666;2023-03-13T15:47:47;4.78;;;0.98;;
74894;SDS011;63447;49.446;8.666;2023-03-13T15:50:15;4.63;;;1.60;;
74894;SDS011;63447;49.446;8.666;2023-03-13T15:52:45;6.32;;;1.10;;
74894;SDS011;63447;49.446;8.666;2023-03-13T15:55:13;3.28;;;1.00;;
74894;SDS011;63447;49.446;8.666;2023-03-13T15:57:41;5.95;;;1.10;;
74894;SDS011;63447;49.446;8.666;2023-03-13T16:00:20;2.92;;;1.02;;
74894;SDS011;63447;49.446;8.666;2023-03-13T16:02:47;4.28;;;0.95;;
74894;SDS011;63447;49.446;8.666;2023-03-13T16:05:13;4.00;;;0.90;;
74894;SDS011;63447;49.446;8.666;2023-03-13T16:07:42;3.65;;;0.90;;
74894;SDS011;63447;49.446;8.666;2023-03-13T16:10:16;3.45;;;0.90;;
74894;SDS011;63447;49.446;8.666;2023-03-13T16:12:44;3.08;;;0.88;;
74894;SDS011;63447;49.446;8.666;2023-03-13T16:15:11;3.90;;;1.00;;
74894;SDS011;63447;49.446;8.666;2023-03-13T16:17:39;4.72;;;1.00;;
74894;SDS011;63447;49.446;8.666;2023-03-13T16:20:17;3.60;;;0.73;;
74894;SDS011;63447;49.446;8.666;2023-03-13T16:22:45;5.45;;;0.80;;
74894;SDS011;63447;49.446;8.666;2023-03-13T16:25:11;6.75;;;0.73;;
74894;SDS011;63447;49.446;8.666;2023-03-13T16:27:37;3.17;;;0.60;;
74894;SDS011;63447;49.446;8.666;2023-03-13T16:30:11;4.10;;;0.85;;
74894;SDS011;63447;49.446;8.666;2023-03-13T16:32:42;3.05;;;0.60;;
74894;SDS011;63447;49.446;8.666;2023-03-13T16:35:08;2.42;;;0.70;;
74894;SDS011;63447;49.446;8.666;2023-03-13T16:37:36;2.33;;;0.55;;
74894;SDS011;63447;49.446;8.666;2023-03-13T16:40:14;3.40;;;0.80;;
74894;SDS011;63447;49.446;8.666;2023-03-13T16:42:46;2.83;;;0.63;;
74894;SDS011;63447;49.446;8.666;2023-03-13T16:45:12;4.55;;;1.00;;
74894;SDS011;63447;49.446;8.666;2023-03-13T16:47:40;2.40;;;0.60;;
74894;SDS011;63447;49.446;8.666;2023-03-13T16:52:42;2.40;;;0.60;;
74894;SDS011;63447;49.446;8.666;2023-03-13T16:55:12;3.35;;;0.70;;
74894;SDS011;63447;49.446;8.666;2023-03-13T16:57:40;3.13;;;0.60;;
74894;SDS011;63447;49.446;8.666;2023-03-13T17:00:15;1.90;;;0.47;;
74894;SDS011;63447;49.446;8.666;2023-03-13T17:02:46;1.90;;;0.40;;
74894;SDS011;63447;49.446;8.666;2023-03-13T17:05:14;2.22;;;0.50;;
74894;SDS011;63447;49.446;8.666;2023-03-13T17:07:43;2.97;;;0.60;;
74894;SDS011;63447;49.446;8.666;2023-03-13T17:13:10;2.25;;;0.50;;
74894;SDS011;63447;49.446;8.666;2023-03-13T17:15:35;3.03;;;0.73;;
74894;SDS011;63447;49.446;8.666;2023-03-13T17:18:03;2.90;;;0.70;;
74894;SDS011;63447;49.446;8.666;2023-03-13T17:20:31;2.58;;;0.82;;
74894;SDS011;63447;49.446;8.666;2023-03-13T17:22:56;3.13;;;0.80;;
74894;SDS011;63447;49.446;8.666;2023-03-13T17:25:25;2.90;;;0.70;;
74894;SDS011;63447;49.446;8.666;2023-03-13T17:27:50;3.22;;;0.90;;
74894;SDS011;63447;49.446;8.666;2023-03-13T17:32:54;4.25;;;1.05;;
74894;SDS011;63447;49.446;8.666;2023-03-13T17:35:20;3.60;;;0.85;;
74894;SDS011;63447;49.446;8.666;2023-03-13T17:37:51;3.65;;;0.95;;
74894;SDS011;63447;49.446;8.666;2023-03-13T17:40:23;4.37;;;1.20;;
74894;SDS011;63447;49.446;8.666;2023-03-13T17:42:53;3.80;;;1.13;;